Time;durP1;ratioP1;P1;durP2;ratioP2;P2;SDS_P1;SDS_P2;PMS_P1;PMS_P2;Temp;Humidity;BMP_temperature;BMP_pressure;BME280_temperature;BME280_humidity;BME280_pressure;Samples;Min_cycle;Max_cycle;Signal;HPM_P1;HPM_P2
2022/10/02 00:02:15;;;;;;;7.53;3.93;;;17.20;63.40;;;;;;5085645;28;20459;-92
2022/10/02 00:04:47;;;;;;;8.03;3.80;;;17.20;63.50;;;;;;5112348;28;20591;-92
2022/10/02 00:07:15;;;;;;;10.23;3.83;;;17.20;62.90;;;;;;5087299;28;20450;-92
2022/10/02 00:09:49;;;;;;;7.93;4.00;;;17.20;63.00;;;;;;5116797;28;20474;-92
2022/10/02 00:12:19;;;;;;;12.60;4.03;;;17.20;63.60;;;;;;5115513;27;20445;-92
2022/10/02 00:14:51;;;;;;;8.93;3.60;;;17.20;63.80;;;;;;5115630;28;20479;-92
2022/10/02 00:17:22;;;;;;;8.00;3.60;;;17.20;63.40;;;;;;5112220;28;21040;-92
2022/10/02 00:19:53;;;;;;;5.30;3.80;;;17.30;63.60;;;;;;5088556;28;20443;-91
2022/10/02 00:22:44;;;;;;;5.17;3.33;;;17.30;63.20;;;;;;5088701;28;20450;-90
2022/10/02 00:25:20;;;;;;;7.53;4.23;;;17.20;62.80;;;;;;5091916;28;20560;-92
2022/10/02 00:28:07;;;;;;;8.63;4.00;;;17.20;63.00;;;;;;5081133;28;20509;-92
2022/10/02 00:30:47;;;;;;;7.47;4.17;;;17.20;63.10;;;;;;5095804;28;20449;-92
2022/10/02 00:33:22;;;;;;;9.57;3.90;;;17.20;63.20;;;;;;5117898;28;20547;-92
2022/10/02 00:36:06;;;;;;;12.53;3.57;;;17.20;63.40;;;;;;5106451;28;20470;-93
2022/10/02 00:38:47;;;;;;;10.83;3.73;;;17.20;63.60;;;;;;5098364;28;20821;-91
2022/10/02 00:41:34;;;;;;;7.10;2.80;;;17.20;63.60;;;;;;5102183;28;20454;-92
2022/10/02 00:44:22;;;;;;;4.73;3.57;;;17.20;63.70;;;;;;5087735;28;20814;-91
2022/10/02 00:46:59;;;;;;;5.53;3.93;;;17.20;64.20;;;;;;5106086;27;20796;-92
2022/10/02 00:49:52;;;;;;;13.70;4.43;;;17.30;64.30;;;;;;5090506;27;20461;-92
2022/10/02 00:52:39;;;;;;;15.70;4.70;;;17.20;64.70;;;;;;5090607;27;20434;-91
2022/10/02 00:55:34;;;;;;;10.87;4.37;;;17.20;65.30;;;;;;5109645;27;20851;-93
2022/10/02 00:58:17;;;;;;;6.00;4.13;;;17.20;65.20;;;;;;5098050;28;20570;-92
2022/10/02 01:00:53;;;;;;;8.07;3.93;;;17.20;65.10;;;;;;5120014;27;20434;-91
2022/10/02 01:03:25;;;;;;;5.10;4.13;;;17.10;65.70;;;;;;5098738;27;20481;-90
2022/10/02 01:05:52;;;;;;;18.67;6.70;;;17.00;66.70;;;;;;5101682;28;20458;-92
2022/10/02 01:08:20;;;;;;;13.97;4.33;;;17.00;66.90;;;;;;5090373;27;20485;-91
2022/10/02 01:10:48;;;;;;;10.20;4.50;;;17.00;66.90;;;;;;5099261;27;20450;-92
2022/10/02 01:13:16;;;;;;;8.40;3.77;;;17.20;66.40;;;;;;5091280;27;20814;-92
2022/10/02 01:15:48;;;;;;;10.50;4.53;;;17.10;66.80;;;;;;5106784;27;20547;-91
2022/10/02 01:18:15;;;;;;;7.90;3.80;;;17.10;66.80;;;;;;5106504;27;20442;-93
2022/10/02 01:20:47;;;;;;;4.20;3.40;;;17.10;67.10;;;;;;5117299;27;20457;-91
2022/10/02 01:23:24;;;;;;;9.50;3.97;;;17.20;66.80;;;;;;5113221;27;20466;-92
2022/10/02 01:25:53;;;;;;;9.20;4.20;;;17.10;67.00;;;;;;5089827;27;20458;-91
2022/10/02 01:28:21;;;;;;;7.57;4.73;;;17.20;66.90;;;;;;5098431;27;20526;-90
2022/10/02 01:30:51;;;;;;;7.30;3.80;;;17.20;66.70;;;;;;5109840;27;20473;-91
2022/10/02 01:33:19;;;;;;;20.97;4.10;;;17.10;66.80;;;;;;5106161;27;20450;-91
2022/10/02 01:35:46;;;;;;;7.47;4.00;;;17.20;66.70;;;;;;5114100;27;20902;-93
2022/10/02 01:38:18;;;;;;;8.93;4.93;;;17.10;66.90;;;;;;5115810;27;20443;-92
2022/10/02 01:40:45;;;;;;;8.03;3.90;;;17.10;66.80;;;;;;5104827;27;20472;-92
2022/10/02 01:43:16;;;;;;;12.33;4.63;;;17.20;66.70;;;;;;5107332;27;20458;-92
2022/10/02 01:46:13;;;;;;;13.53;5.00;;;17.30;66.30;;;;;;5100080;27;20461;-92
2022/10/02 01:48:47;;;;;;;10.37;3.43;;;17.30;66.00;;;;;;5102961;27;20529;-91
2022/10/02 01:51:45;;;;;;;6.80;4.03;;;17.30;66.20;;;;;;5090615;27;20447;-92
2022/10/02 01:54:21;;;;;;;7.47;5.13;;;17.30;66.40;;;;;;5102976;27;20446;-91
2022/10/02 01:56:55;;;;;;;7.37;3.80;;;17.20;66.70;;;;;;5098621;27;20795;-92
2022/10/02 01:59:40;;;;;;;10.87;4.33;;;17.20;66.40;;;;;;5116268;27;20447;-91
2022/10/02 02:02:17;;;;;;;9.33;3.70;;;17.40;66.00;;;;;;5117392;27;20461;-91
2022/10/02 02:04:54;;;;;;;6.33;4.13;;;17.50;65.70;;;;;;5125028;27;21043;-91
2022/10/02 02:07:30;;;;;;;6.93;4.60;;;17.50;66.10;;;;;;5090385;27;20957;-90
2022/10/02 02:10:04;;;;;;;11.03;3.90;;;17.50;65.40;;;;;;5104013;27;21000;-91
2022/10/02 02:12:40;;;;;;;17.10;4.97;;;17.50;65.40;;;;;;5089818;27;20465;-91
2022/10/02 02:15:13;;;;;;;10.03;4.27;;;17.40;65.70;;;;;;5098679;27;20459;-91
2022/10/02 02:17:48;;;;;;;8.03;4.00;;;17.30;66.20;;;;;;5097951;27;20450;-91
2022/10/02 02:20:18;;;;;;;7.97;4.83;;;17.30;66.30;;;;;;5117448;27;20454;-92
2022/10/02 02:22:48;;;;;;;10.90;3.33;;;17.30;66.50;;;;;;5108636;27;20793;-91
2022/10/02 02:25:18;;;;;;;8.43;3.87;;;17.30;66.40;;;;;;5116371;27;21003;-92
2022/10/02 02:27:50;;;;;;;6.93;3.17;;;17.30;66.10;;;;;;5114029;27;20541;-91
2022/10/02 02:30:20;;;;;;;6.73;3.23;;;17.20;66.40;;;;;;5115667;27;20451;-91
2022/10/02 02:32:50;;;;;;;19.87;3.80;;;16.90;67.20;;;;;;5117730;27;20437;-92
2022/10/02 02:35:23;;;;;;;5.90;3.60;;;17.00;67.20;;;;;;5101073;27;20833;-92
2022/10/02 02:37:53;;;;;;;9.80;3.60;;;17.10;67.10;;;;;;5087669;28;20450;-91
2022/10/02 02:40:24;;;;;;;8.13;3.73;;;17.20;66.40;;;;;;5097031;27;20443;-90
2022/10/02 02:42:57;;;;;;;7.30;3.63;;;17.30;66.30;;;;;;5116323;27;20446;-91
2022/10/02 02:45:31;;;;;;;9.90;2.80;;;17.40;66.10;;;;;;5098980;27;20451;-91
2022/10/02 02:48:02;;;;;;;6.80;2.77;;;17.40;65.80;;;;;;5118696;27;20451;-90
2022/10/02 02:50:32;;;;;;;10.03;3.00;;;17.40;65.90;;;;;;5114186;27;21094;-92
2022/10/02 02:53:07;;;;;;;6.40;3.30;;;17.40;65.90;;;;;;5101441;27;20447;-91
2022/10/02 02:55:38;;;;;;;4.27;2.57;;;17.30;66.00;;;;;;5097955;27;20485;-90
2022/10/02 02:58:11;;;;;;;12.83;3.57;;;17.30;66.20;;;;;;5122804;27;20446;-92
2022/10/02 03:00:40;;;;;;;8.13;3.50;;;17.30;66.30;;;;;;5096596;27;20473;-92
2022/10/02 03:03:07;;;;;;;12.80;3.67;;;17.50;65.80;;;;;;5099410;27;20529;-91
2022/10/02 03:05:35;;;;;;;5.40;2.50;;;17.50;65.20;;;;;;5103007;27;20548;-91
2022/10/02 03:08:05;;;;;;;5.73;2.60;;;17.50;65.20;;;;;;5105720;28;20538;-91
2022/10/02 03:10:44;;;;;;;14.27;3.10;;;17.40;65.30;;;;;;5106199;27;20439;-91
2022/10/02 03:13:22;;;;;;;4.43;2.70;;;17.50;65.20;;;;;;5114068;27;20445;-91
2022/10/02 03:16:03;;;;;;;10.60;3.30;;;17.50;65.00;;;;;;5105337;27;20546;-91
2022/10/02 03:18:46;;;;;;;3.37;2.40;;;17.60;65.20;;;;;;5112872;27;20457;-91
2022/10/02 03:21:17;;;;;;;10.20;3.20;;;17.40;65.70;;;;;;5108625;27;20450;-92
2022/10/02 03:23:57;;;;;;;10.57;2.27;;;17.30;65.90;;;;;;5101044;28;20478;-90
2022/10/02 03:26:34;;;;;;;8.70;2.67;;;17.30;65.70;;;;;;5111536;27;20476;-92
2022/10/02 03:29:05;;;;;;;5.07;2.63;;;17.40;65.40;;;;;;5105220;28;20533;-91
2022/10/02 03:31:36;;;;;;;8.53;2.30;;;17.40;65.30;;;;;;5078608;28;20488;-91
2022/10/02 03:34:04;;;;;;;6.73;2.30;;;17.50;65.40;;;;;;5096407;27;20449;-92
2022/10/02 03:36:32;;;;;;;4.53;3.00;;;17.50;65.10;;;;;;5099107;28;20468;-90
2022/10/02 03:39:02;;;;;;;9.17;2.47;;;17.60;64.70;;;;;;5104438;28;20440;-91
2022/10/02 03:41:29;;;;;;;6.67;2.40;;;17.60;64.50;;;;;;5096708;28;20529;-91
2022/10/02 03:43:56;;;;;;;3.50;2.43;;;17.60;64.50;;;;;;5102818;28;20604;-92
2022/10/02 03:46:23;;;;;;;7.07;2.20;;;17.50;64.80;;;;;;5096250;28;20801;-91
2022/10/02 03:48:51;;;;;;;9.43;2.50;;;17.50;64.70;;;;;;5110070;28;20445;-91
2022/10/02 03:51:23;;;;;;;11.00;2.53;;;17.40;65.40;;;;;;5092626;28;20501;-92
2022/10/02 03:53:50;;;;;;;6.90;2.40;;;17.50;64.90;;;;;;5094121;28;20856;-91
2022/10/02 03:56:29;;;;;;;9.33;2.73;;;17.50;64.80;;;;;;5095539;28;20540;-91
2022/10/02 03:59:01;;;;;;;3.50;2.00;;;17.50;64.90;;;;;;5110146;28;20450;-91
2022/10/02 04:01:32;;;;;;;5.30;2.80;;;17.50;64.50;;;;;;5103527;28;20446;-90
2022/10/02 04:04:06;;;;;;;7.87;2.50;;;17.50;64.50;;;;;;5083776;28;20454;-91
2022/10/02 04:06:42;;;;;;;4.70;2.73;;;17.50;64.80;;;;;;5097961;28;20462;-91
2022/10/02 04:09:12;;;;;;;11.90;3.00;;;17.30;65.00;;;;;;5116022;27;20957;-92
2022/10/02 04:11:43;;;;;;;6.03;3.70;;;17.30;65.00;;;;;;5094640;28;21933;-91
2022/10/02 04:14:16;;;;;;;10.20;3.70;;;17.10;65.80;;;;;;5111404;28;20525;-90
2022/10/02 04:16:50;;;;;;;12.00;3.33;;;17.10;65.80;;;;;;5112965;28;20451;-91
2022/10/02 04:19:24;;;;;;;7.37;2.50;;;17.30;65.30;;;;;;5083979;28;20521;-91
2022/10/02 04:21:56;;;;;;;9.23;2.67;;;17.30;65.20;;;;;;5116415;27;20450;-90
2022/10/02 04:24:30;;;;;;;5.30;2.87;;;17.20;65.20;;;;;;5116555;27;20451;-91
2022/10/02 04:27:05;;;;;;;7.83;2.70;;;17.30;64.90;;;;;;5105665;27;20906;-91
2022/10/02 04:29:38;;;;;;;10.83;3.30;;;17.30;65.10;;;;;;5102501;27;20830;-91
2022/10/02 04:32:13;;;;;;;3.20;2.87;;;17.40;65.00;;;;;;5086441;27;20537;-91
2022/10/02 04:34:41;;;;;;;8.27;3.13;;;17.50;64.50;;;;;;5117121;27;21000;-91
2022/10/02 04:37:34;;;;;;;4.17;2.30;;;17.50;64.10;;;;;;5100482;27;20455;-91
2022/10/02 04:40:15;;;;;;;8.63;2.40;;;17.40;64.40;;;;;;5108467;27;20496;-91
2022/10/02 04:42:58;;;;;;;8.40;2.80;;;17.50;64.40;;;;;;5090964;27;20537;-91
2022/10/02 04:45:43;;;;;;;12.60;2.93;;;17.60;64.30;;;;;;5098994;27;20794;-91
2022/10/02 04:48:42;;;;;;;5.97;2.13;;;17.70;63.80;;;;;;5126895;27;20444;-91
2022/10/02 04:51:24;;;;;;;7.63;2.77;;;17.80;63.60;;;;;;5107645;27;20451;-91
2022/10/02 04:54:13;;;;;;;6.73;3.30;;;17.80;63.60;;;;;;5118580;27;20446;-91
2022/10/02 04:57:12;;;;;;;9.00;3.10;;;17.70;64.00;;;;;;5109969;27;20548;-91
2022/10/02 04:59:52;;;;;;;6.77;2.60;;;17.80;63.80;;;;;;5105209;27;20463;-91
2022/10/02 05:02:32;;;;;;;5.87;2.57;;;17.50;64.60;;;;;;5090531;27;20462;-91
2022/10/02 05:05:11;;;;;;;10.10;4.23;;;17.40;65.30;;;;;;5114649;27;20830;-91
2022/10/02 05:07:59;;;;;;;4.90;2.70;;;17.50;65.10;;;;;;5099770;27;20443;-90
2022/10/02 05:10:43;;;;;;;17.40;3.80;;;17.50;65.00;;;;;;5114963;27;20958;-91
2022/10/02 05:13:29;;;;;;;14.17;3.60;;;17.40;65.60;;;;;;5115736;27;20461;-91
2022/10/02 05:16:15;;;;;;;7.53;2.43;;;17.40;65.80;;;;;;5101101;27;20518;-91
2022/10/02 05:18:57;;;;;;;5.87;2.83;;;17.50;65.30;;;;;;5118667;27;20465;-91
2022/10/02 05:21:52;;;;;;;14.33;3.13;;;17.40;65.70;;;;;;5100718;27;20452;-91
2022/10/02 05:24:44;;;;;;;6.13;2.77;;;17.50;65.70;;;;;;5083773;27;20468;-90
2022/10/02 05:27:31;;;;;;;7.20;3.10;;;17.50;65.70;;;;;;5103001;27;21278;-91
2022/10/02 05:30:06;;;;;;;23.50;11.87;;;17.50;66.20;;;;;;5112521;27;20446;-90
2022/10/02 05:33:02;;;;;;;22.83;15.13;;;17.50;66.50;;;;;;5098737;27;20454;-89
2022/10/02 05:35:43;;;;;;;5.43;3.27;;;17.30;66.60;;;;;;5102726;27;20465;-90
2022/10/02 05:38:20;;;;;;;8.03;3.30;;;17.30;67.00;;;;;;5096958;27;20583;-91
2022/10/02 05:40:59;;;;;;;7.57;2.37;;;17.10;67.30;;;;;;5085607;27;20447;-90
2022/10/02 05:43:33;;;;;;;6.80;3.20;;;17.20;67.20;;;;;;5102888;27;20466;-91
2022/10/02 05:46:05;;;;;;;5.07;3.07;;;17.30;67.00;;;;;;5107292;27;20502;-91
2022/10/02 05:48:38;;;;;;;11.40;4.50;;;17.50;66.80;;;;;;5110815;27;20459;-91
2022/10/02 05:51:09;;;;;;;6.57;4.00;;;17.50;66.30;;;;;;5092751;27;21088;-92
2022/10/02 05:53:42;;;;;;;11.83;4.00;;;17.60;66.20;;;;;;5098089;27;20449;-90
2022/10/02 05:56:17;;;;;;;8.33;4.30;;;17.60;66.60;;;;;;5093246;28;20477;-90
2022/10/02 05:58:51;;;;;;;10.73;3.60;;;17.50;66.80;;;;;;5083934;27;20442;-89
2022/10/02 06:01:25;;;;;;;12.40;3.40;;;17.50;66.80;;;;;;5083494;27;20953;-90
2022/10/02 06:04:00;;;;;;;5.70;3.30;;;17.40;67.20;;;;;;5106528;27;20450;-91
2022/10/02 06:06:33;;;;;;;6.57;3.37;;;17.60;66.80;;;;;;5106704;27;20957;-90
2022/10/02 06:09:05;;;;;;;6.90;3.37;;;17.60;66.30;;;;;;5082649;28;20443;-90
2022/10/02 06:11:41;;;;;;;3.57;2.83;;;17.60;66.50;;;;;;5092315;27;20632;-90
2022/10/02 06:14:13;;;;;;;8.00;3.13;;;17.80;66.30;;;;;;5097127;27;20450;-90
2022/10/02 06:16:46;;;;;;;7.73;3.53;;;17.60;66.40;;;;;;5099330;27;20454;-90
2022/10/02 06:19:19;;;;;;;11.10;4.80;;;17.70;66.50;;;;;;5092384;27;20461;-90
2022/10/02 06:21:50;;;;;;;5.60;3.60;;;17.80;66.50;;;;;;5106109;27;20448;-91
2022/10/02 06:24:24;;;;;;;5.40;2.80;;;17.80;66.10;;;;;;5107332;27;20968;-90
2022/10/02 06:26:59;;;;;;;5.37;2.67;;;17.80;66.40;;;;;;5108549;27;20458;-91
2022/10/02 06:29:31;;;;;;;4.93;2.97;;;17.70;66.30;;;;;;5098263;27;20561;-90
2022/10/02 06:32:13;;;;;;;5.83;2.90;;;17.70;66.30;;;;;;5105800;27;20964;-90
2022/10/02 06:34:40;;;;;;;6.10;2.73;;;17.60;66.80;;;;;;5097231;27;20592;-90
2022/10/02 06:37:33;;;;;;;9.20;3.07;;;17.60;67.00;;;;;;5110699;27;20456;-92
2022/10/02 06:40:18;;;;;;;9.63;3.13;;;17.60;67.20;;;;;;5103208;27;20453;-91
2022/10/02 06:42:55;;;;;;;6.30;2.60;;;17.50;67.30;;;;;;5119983;27;20489;-91
2022/10/02 06:45:31;;;;;;;8.20;3.00;;;17.30;68.20;;;;;;5113960;27;20579;-91
2022/10/02 06:48:06;;;;;;;8.37;2.20;;;17.30;68.30;;;;;;5112555;27;20481;-90
2022/10/02 06:50:43;;;;;;;7.97;2.37;;;17.20;68.90;;;;;;5091593;28;20456;-90
2022/10/02 06:53:31;;;;;;;4.03;2.50;;;17.10;69.80;;;;;;5115949;27;20427;-91
2022/10/02 06:56:07;;;;;;;12.83;3.40;;;17.20;69.80;;;;;;5091358;28;20962;-90
2022/10/02 06:58:55;;;;;;;7.13;3.23;;;17.30;69.20;;;;;;5090411;27;20453;-90
2022/10/02 07:01:34;;;;;;;6.57;2.97;;;17.30;69.00;;;;;;5108578;27;20454;-89
2022/10/02 07:04:15;;;;;;;8.63;3.50;;;17.30;69.10;;;;;;5097253;27;20828;-90
2022/10/02 07:06:51;;;;;;;6.87;2.97;;;17.30;69.10;;;;;;5106780;27;20528;-87
2022/10/02 07:09:56;;;;;;;8.80;3.97;;;17.40;69.10;;;;;;5104138;27;20477;-91
2022/10/02 07:12:45;;;;;;;10.93;2.50;;;17.30;69.00;;;;;;5093331;27;20780;-90
2022/10/02 07:15:35;;;;;;;5.53;5.00;;;17.00;70.40;;;;;;5094051;28;20467;-90
2022/10/02 07:18:16;;;;;;;5.40;4.20;;;16.90;70.50;;;;;;5093559;27;21126;-89
2022/10/02 07:20:52;;;;;;;8.30;5.17;;;17.10;70.40;;;;;;5099116;27;20914;-90
2022/10/02 07:23:41;;;;;;;10.00;3.40;;;17.10;70.10;;;;;;5088537;27;20533;-89
2022/10/02 07:26:40;;;;;;;3.20;2.47;;;17.20;69.90;;;;;;5114443;27;21056;-89
2022/10/02 07:29:27;;;;;;;4.57;2.97;;;17.30;69.60;;;;;;5067713;28;20450;-89
2022/10/02 07:32:21;;;;;;;2.90;2.17;;;17.50;69.30;;;;;;5088715;28;20864;-90
2022/10/02 07:34:57;;;;;;;7.17;2.37;;;17.50;68.50;;;;;;5089405;27;20454;-89
2022/10/02 07:37:31;;;;;;;4.07;2.77;;;17.50;68.30;;;;;;5089667;28;20985;-89
2022/10/02 07:40:16;;;;;;;3.00;2.70;;;17.60;68.30;;;;;;5102339;28;20446;-88
2022/10/02 07:42:58;;;;;;;3.87;2.17;;;17.50;68.40;;;;;;5107313;28;20542;-88
2022/10/02 07:45:29;;;;;;;14.77;5.90;;;17.60;68.70;;;;;;5108734;28;20462;-89
2022/10/02 07:48:18;;;;;;;8.23;5.50;;;17.60;68.30;;;;;;5111860;28;20874;-89
2022/10/02 07:50:59;;;;;;;6.10;2.70;;;17.60;68.40;;;;;;5109376;28;20896;-89
2022/10/02 07:53:37;;;;;;;3.73;3.37;;;17.70;68.20;;;;;;5114281;28;20438;-90
2022/10/02 07:56:07;;;;;;;6.10;3.40;;;17.60;68.40;;;;;;5097019;27;20808;-86
2022/10/02 07:58:39;;;;;;;4.87;2.70;;;17.60;68.60;;;;;;5114741;27;20441;-89
2022/10/02 08:01:12;;;;;;;3.80;2.67;;;17.70;68.30;;;;;;5083563;27;20880;-89
2022/10/02 08:03:46;;;;;;;3.90;2.60;;;17.70;68.60;;;;;;5106974;27;20453;-88
2022/10/02 08:06:13;;;;;;;5.00;2.47;;;17.60;68.40;;;;;;5100934;27;21039;-89
2022/10/02 08:08:47;;;;;;;6.13;2.67;;;17.60;69.00;;;;;;5110431;27;21037;-90
2022/10/02 08:11:18;;;;;;;5.37;2.67;;;17.70;68.80;;;;;;5086777;27;20454;-90
2022/10/02 08:13:49;;;;;;;3.67;2.50;;;17.50;69.10;;;;;;5112823;27;20465;-88
2022/10/02 08:16:22;;;;;;;7.17;3.73;;;17.50;69.50;;;;;;5112434;27;20459;-88
2022/10/02 08:18:56;;;;;;;3.63;2.70;;;17.60;68.90;;;;;;5117271;27;20446;-88
2022/10/02 08:21:25;;;;;;;2.80;1.90;;;17.70;68.50;;;;;;5111641;27;20451;-88
2022/10/02 08:23:56;;;;;;;7.23;2.83;;;17.80;68.40;;;;;;5088325;27;20449;-86
2022/10/02 08:26:30;;;;;;;7.47;3.43;;;17.60;69.20;;;;;;5111519;27;20469;-88
2022/10/02 08:29:04;;;;;;;7.50;3.73;;;17.60;69.40;;;;;;5089497;27;21002;-89
2022/10/02 08:31:31;;;;;;;4.73;2.87;;;17.60;69.10;;;;;;5125067;27;20502;-90
2022/10/02 08:34:06;;;;;;;15.10;8.23;;;17.70;69.00;;;;;;5105609;27;20435;-88
2022/10/02 08:36:57;;;;;;;4.33;3.93;;;17.80;68.70;;;;;;5118936;27;20540;-89
2022/10/02 08:39:39;;;;;;;5.30;3.40;;;17.80;69.60;;;;;;5101918;27;21028;-89
2022/10/02 08:42:44;;;;;;;9.00;3.80;;;17.90;68.30;;;;;;5108562;27;20450;-90
2022/10/02 08:45:41;;;;;;;4.70;2.77;;;18.00;68.10;;;;;;5105728;27;20989;-90
2022/10/02 08:48:38;;;;;;;9.63;5.50;;;18.00;67.90;;;;;;5114322;27;20490;-90
2022/10/02 08:51:49;;;;;;;4.53;4.13;;;18.00;67.90;;;;;;5117680;27;20453;-90
2022/10/02 08:54:35;;;;;;;13.13;8.13;;;18.00;68.20;;;;;;5072241;27;20454;-89
2022/10/02 08:57:21;;;;;;;7.03;6.33;;;18.00;68.10;;;;;;5105819;27;20441;-92
2022/10/02 09:00:11;;;;;;;5.83;5.30;;;17.90;68.50;;;;;;5093946;27;20925;-90
2022/10/02 09:03:24;;;;;;;12.53;6.00;;;17.90;68.30;;;;;;5116696;27;20442;-90
2022/10/02 09:06:18;;;;;;;5.60;4.83;;;18.00;68.40;;;;;;5096282;27;20547;-90
2022/10/02 09:09:37;;;;;;;5.27;3.40;;;18.20;68.10;;;;;;5117819;27;20456;-89
2022/10/02 09:12:38;;;;;;;3.40;3.10;;;18.30;67.70;;;;;;5008343;28;20451;-89
2022/10/02 09:15:16;;;;;;;5.43;3.03;;;18.40;67.40;;;;;;4990207;28;20476;-89
2022/10/02 09:17:49;;;;;;;6.27;3.87;;;18.40;67.40;;;;;;5094580;27;20450;-90
2022/10/02 09:20:41;;;;;;;5.50;3.27;;;18.40;67.30;;;;;;5116098;27;20445;-89
2022/10/02 09:23:51;;;;;;;8.57;6.63;;;18.50;67.30;;;;;;5116132;27;20430;-90
2022/10/02 09:26:24;;;;;;;5.73;4.27;;;18.50;67.30;;;;;;5117093;27;20478;-89
2022/10/02 09:29:26;;;;;;;5.87;3.50;;;18.60;67.30;;;;;;5099541;27;20443;-87
2022/10/02 09:32:33;;;;;;;3.87;3.50;;;18.50;67.70;;;;;;5097986;27;20439;-90
2022/10/02 09:35:25;;;;;;;7.37;4.60;;;18.30;68.30;;;;;;5113804;27;20462;-88
2022/10/02 09:38:13;;;;;;;9.87;7.13;;;18.30;68.10;;;;;;5121027;27;20445;-88
2022/10/02 09:41:19;;;;;;;2.67;2.47;;;18.30;68.00;;;;;;5120040;27;20466;-89
2022/10/02 09:44:15;;;;;;;8.47;7.00;;;18.20;67.90;;;;;;5091745;27;20442;-89
2022/10/02 09:47:34;;;;;;;4.43;3.47;;;18.30;68.30;;;;;;5087835;28;20463;-87
2022/10/02 09:50:30;;;;;;;5.17;3.60;;;18.20;68.10;;;;;;5026296;28;20449;-91
2022/10/02 09:53:37;;;;;;;12.33;7.07;;;18.20;68.00;;;;;;5026500;28;20461;-89
2022/10/02 09:56:40;;;;;;;15.47;9.17;;;18.10;68.20;;;;;;5040408;28;20461;-90
2022/10/02 10:00:00;;;;;;;11.03;6.57;;;18.10;68.60;;;;;;5082450;27;20469;-89
2022/10/02 10:02:47;;;;;;;7.53;3.23;;;18.10;68.40;;;;;;5084092;27;20469;-87
2022/10/02 10:05:50;;;;;;;4.03;2.40;;;17.90;69.10;;;;;;5089421;27;20458;-89
2022/10/02 10:08:57;;;;;;;6.57;2.60;;;17.90;69.00;;;;;;5107341;27;20446;-90
2022/10/02 10:12:02;;;;;;;5.43;3.93;;;17.90;69.70;;;;;;5089925;27;20447;-89
2022/10/02 10:15:01;;;;;;;6.67;3.97;;;17.90;69.40;;;;;;5116772;27;20485;-90
2022/10/02 10:18:22;;;;;;;3.87;2.63;;;18.00;69.10;;;;;;5106694;28;20439;-88
2022/10/02 10:21:07;;;;;;;8.27;4.80;;;18.00;69.30;;;;;;5096855;27;20450;-88
2022/10/02 10:24:01;;;;;;;3.60;1.97;;;18.00;69.30;;;;;;5085202;27;20458;-88
2022/10/02 10:27:16;;;;;;;1.60;1.50;;;18.00;69.50;;;;;;5115849;27;20478;-88
2022/10/02 10:30:12;;;;;;;2.80;2.60;;;18.00;69.10;;;;;;5062620;27;21287;-89
2022/10/02 10:33:23;;;;;;;2.40;2.20;;;18.00;69.00;;;;;;5114015;27;20539;-89
2022/10/02 10:39:25;;;;;;;3.57;3.17;;;17.90;70.00;;;;;;5129986;27;20446;-89
2022/10/02 10:42:26;;;;;;;4.27;3.53;;;18.00;69.80;;;;;;5100711;28;20459;-89
2022/10/02 10:45:16;;;;;;;3.90;3.60;;;17.90;69.80;;;;;;5095801;27;20480;-88
2022/10/02 10:48:13;;;;;;;1.73;1.40;;;17.80;70.10;;;;;;5111549;27;20466;-88
2022/10/02 10:50:51;;;;;;;3.30;2.93;;;17.60;70.20;;;;;;5114384;27;20458;-88
2022/10/02 10:54:05;;;;;;;9.47;6.07;;;17.70;70.80;;;;;;5076185;27;20450;-89
2022/10/02 10:56:42;;;;;;;13.47;6.67;;;17.60;71.20;;;;;;5112900;27;20514;-88
2022/10/02 10:59:42;;;;;;;17.00;9.07;;;17.60;70.80;;;;;;5105180;27;20469;-89
2022/10/02 11:02:38;;;;;;;18.50;7.03;;;17.80;70.80;;;;;;5104955;27;20451;-87
2022/10/02 11:05:30;;;;;;;13.77;8.30;;;17.70;70.50;;;;;;5109899;27;20549;-90
2022/10/02 11:08:23;;;;;;;15.70;8.40;;;17.80;70.10;;;;;;5092875;27;20450;-90
2022/10/02 11:11:02;;;;;;;10.67;7.60;;;17.80;70.20;;;;;;5119519;27;20458;-87
2022/10/02 11:13:45;;;;;;;4.40;3.20;;;17.70;70.60;;;;;;5106683;27;20619;-86
2022/10/02 11:16:43;;;;;;;7.30;4.77;;;17.80;70.60;;;;;;5111042;27;20466;-91
2022/10/02 11:19:36;;;;;;;4.63;3.10;;;18.00;69.70;;;;;;5083521;27;20439;-88
2022/10/02 11:22:33;;;;;;;8.03;6.07;;;18.10;69.70;;;;;;5118364;27;20460;-86
2022/10/02 11:25:41;;;;;;;7.33;6.50;;;18.20;69.20;;;;;;5099649;27;20461;-87
2022/10/02 11:28:43;;;;;;;7.10;6.40;;;18.40;69.00;;;;;;5035039;27;20457;-88
2022/10/02 11:31:29;;;;;;;4.70;3.90;;;18.50;68.70;;;;;;5116534;27;20478;-88
2022/10/02 11:34:36;;;;;;;4.40;3.90;;;18.60;68.00;;;;;;5096171;27;20438;-89
2022/10/02 11:37:23;;;;;;;10.17;8.20;;;18.40;68.20;;;;;;5111696;27;20458;-88
2022/10/02 11:40:31;;;;;;;4.73;4.20;;;18.50;68.20;;;;;;5121599;27;20443;-87
2022/10/02 11:43:12;;;;;;;9.33;5.30;;;18.50;67.60;;;;;;5042599;28;20447;-88
2022/10/02 11:46:10;;;;;;;12.10;6.83;;;18.50;67.80;;;;;;5095625;28;20458;-88
2022/10/02 11:48:55;;;;;;;8.83;7.90;;;18.30;68.40;;;;;;5113333;28;20458;-87
2022/10/02 11:51:47;;;;;;;2.70;2.13;;;18.30;68.70;;;;;;5112008;28;20892;-89
2022/10/02 11:54:32;;;;;;;5.07;4.63;;;18.30;68.60;;;;;;5102338;28;20482;-88
2022/10/02 11:57:18;;;;;;;7.30;6.60;;;18.30;68.80;;;;;;5103763;28;20534;-86
2022/10/02 12:00:07;;;;;;;5.23;3.70;;;18.30;68.60;;;;;;5112260;28;20479;-88
2022/10/02 12:02:51;;;;;;;10.70;7.90;;;18.30;68.20;;;;;;5113285;28;20446;-88
2022/10/02 12:05:54;;;;;;;3.60;3.30;;;18.30;68.80;;;;;;5098877;28;20651;-88
2022/10/02 12:08:33;;;;;;;2.93;2.73;;;18.30;68.70;;;;;;5095650;28;20517;-88
2022/10/02 12:11:11;;;;;;;6.13;4.27;;;18.20;69.00;;;;;;5114122;28;20453;-88
2022/10/02 12:14:00;;;;;;;4.80;4.40;;;18.20;69.50;;;;;;5097130;28;20426;-88
2022/10/02 12:16:40;;;;;;;2.77;2.20;;;18.20;69.40;;;;;;5093939;28;20553;-87
2022/10/02 12:19:24;;;;;;;6.80;3.10;;;18.20;69.20;;;;;;5110879;28;20883;-88
2022/10/02 12:27:51;;;;;;;2.47;2.27;;;18.30;68.30;;;;;;5112193;28;20454;-88
2022/10/02 12:30:21;;;;;;;4.50;4.03;;;18.40;68.50;;;;;;5094871;28;20515;-88
2022/10/02 12:33:08;;;;;;;8.10;7.40;;;18.40;68.90;;;;;;5120779;28;20443;-87
2022/10/02 12:35:50;;;;;;;14.47;10.93;;;18.20;68.90;;;;;;5112424;28;20477;-87
2022/10/02 12:38:33;;;;;;;7.90;7.10;;;18.30;68.60;;;;;;5110716;28;20845;-88
2022/10/02 12:41:08;;;;;;;20.20;17.03;;;18.50;68.80;;;;;;5096322;27;20553;-86
2022/10/02 12:44:25;;;;;;;10.63;6.47;;;18.50;68.50;;;;;;5085017;27;20453;-88
2022/10/02 12:47:18;;;;;;;9.97;8.03;;;18.60;68.20;;;;;;5081544;27;20457;-88
2022/10/02 12:49:57;;;;;;;6.60;5.07;;;18.60;68.20;;;;;;5097315;27;20469;-88
2022/10/02 12:53:08;;;;;;;12.77;7.90;;;18.60;68.20;;;;;;5112648;27;20447;-87
2022/10/02 12:56:12;;;;;;;7.20;4.60;;;18.30;68.80;;;;;;5113920;27;20552;-89
2022/10/02 12:58:53;;;;;;;4.43;3.03;;;18.30;68.90;;;;;;5096962;27;20453;-87
2022/10/02 13:01:58;;;;;;;7.73;5.83;;;18.30;68.70;;;;;;5117225;27;21061;-87
2022/10/02 13:04:56;;;;;;;10.87;8.93;;;18.20;69.00;;;;;;5111018;27;20446;-87
2022/10/02 13:07:55;;;;;;;14.83;6.30;;;18.30;69.80;;;;;;5097322;27;20511;-87
2022/10/02 13:10:25;;;;;;;5.97;3.93;;;18.20;69.40;;;;;;5098899;27;20465;-89
2022/10/02 13:13:05;;;;;;;11.90;9.60;;;18.30;69.10;;;;;;5099756;27;20590;-89
2022/10/02 13:15:41;;;;;;;3.80;3.40;;;18.40;69.30;;;;;;5120296;27;20545;-90
2022/10/02 13:18:32;;;;;;;6.87;3.50;;;18.60;68.60;;;;;;5111648;27;20442;-88
2022/10/02 13:21:04;;;;;;;7.30;4.07;;;18.60;68.40;;;;;;5080439;27;20438;-88
2022/10/02 13:23:44;;;;;;;4.40;2.97;;;18.70;68.60;;;;;;5089112;27;20447;-88
2022/10/02 13:26:21;;;;;;;3.10;1.97;;;18.70;68.50;;;;;;5081431;27;20469;-88
2022/10/02 13:29:16;;;;;;;4.23;2.37;;;18.60;68.30;;;;;;5115432;27;20545;-86
2022/10/02 13:32:04;;;;;;;5.53;3.63;;;18.50;68.90;;;;;;5103746;27;20443;-88
2022/10/02 13:34:51;;;;;;;1.80;1.63;;;18.50;69.10;;;;;;5110929;27;20451;-89
2022/10/02 13:37:31;;;;;;;2.43;2.20;;;18.40;68.50;;;;;;5103888;27;20470;-88
2022/10/02 13:40:18;;;;;;;7.70;4.17;;;18.50;68.50;;;;;;5112544;27;20443;-88
2022/10/02 13:43:11;;;;;;;4.00;1.73;;;18.30;69.10;;;;;;5096198;27;20973;-88
2022/10/02 13:45:43;;;;;;;4.83;2.80;;;18.50;69.20;;;;;;5071596;27;21416;-88
2022/10/02 13:48:19;;;;;;;13.50;5.30;;;18.40;69.40;;;;;;5113686;27;20461;-88
2022/10/02 13:50:54;;;;;;;13.40;6.40;;;18.40;69.40;;;;;;5112405;27;20446;-88
2022/10/02 13:53:37;;;;;;;88.17;35.20;;;18.60;69.00;;;;;;5103691;27;20438;-87
2022/10/02 13:56:16;;;;;;;56.30;28.50;;;18.70;68.40;;;;;;5112403;27;20460;-88
2022/10/02 13:59:13;;;;;;;6.10;4.03;;;18.70;68.90;;;;;;5103093;27;20535;-88
2022/10/02 14:01:55;;;;;;;45.37;24.60;;;18.80;68.40;;;;;;5077492;27;20458;-89
2022/10/02 14:08:21;;;;;;;5.20;3.30;;;18.70;68.00;;;;;;5110446;27;20481;-88
2022/10/02 14:11:01;;;;;;;13.33;6.40;;;18.90;67.80;;;;;;5115080;27;20461;-88
2022/10/02 14:13:44;;;;;;;21.40;11.83;;;18.90;67.60;;;;;;5099042;27;20443;-88